createdAt,value
2017-09-14T00:00:04.390Z,9.60
2017-09-14T00:02:32.450Z,17.80
2017-09-14T00:05:00.584Z,10.00
2017-09-14T00:07:29.419Z,12.63
2017-09-14T00:09:57.496Z,10.43
2017-09-14T00:12:25.633Z,13.33
2017-09-14T00:14:53.667Z,11.10
2017-09-14T00:17:21.750Z,10.90
2017-09-14T00:19:50.617Z,8.70
2017-09-14T00:22:18.690Z,8.57
2017-09-14T00:24:46.834Z,9.20
2017-09-14T00:27:14.895Z,10.83
2017-09-14T00:29:42.964Z,7.03
2017-09-14T00:32:11.049Z,14.03
2017-09-14T00:34:39.102Z,8.50
2017-09-14T00:37:07.199Z,10.43
2017-09-14T00:39:35.283Z,10.40
2017-09-14T00:42:03.337Z,10.63
2017-09-14T00:44:31.403Z,9.33
2017-09-14T00:46:59.450Z,12.37
2017-09-14T00:49:28.294Z,15.77
2017-09-14T00:51:56.355Z,11.43
2017-09-14T00:54:24.474Z,8.90
2017-09-14T00:56:52.555Z,10.37
2017-09-14T00:59:20.619Z,13.50
2017-09-14T01:01:48.690Z,16.27
2017-09-14T01:04:16.836Z,10.90
2017-09-14T01:06:44.904Z,13.17
2017-09-14T01:09:12.979Z,13.50
2017-09-14T01:11:41.046Z,12.70
2017-09-14T01:14:09.122Z,12.80
2017-09-14T01:16:37.215Z,17.13
2017-09-14T01:19:06.025Z,13.80
2017-09-14T01:21:34.855Z,9.97
2017-09-14T01:24:03.735Z,11.03
2017-09-14T01:26:31.808Z,4.80
2017-09-14T01:28:59.874Z,14.30
2017-09-14T01:31:27.966Z,10.03
2017-09-14T01:33:56.018Z,8.33
2017-09-14T01:36:24.275Z,12.60
2017-09-14T01:38:52.323Z,12.30
2017-09-14T01:41:20.436Z,12.60
2017-09-14T01:43:48.503Z,11.90
2017-09-14T01:46:17.344Z,7.00
2017-09-14T01:48:45.407Z,5.67
2017-09-14T01:51:13.466Z,8.80
2017-09-14T01:53:41.576Z,9.23
2017-09-14T01:56:12.160Z,11.77
2017-09-14T01:58:40.211Z,7.63
2017-09-14T02:01:08.254Z,6.17
2017-09-14T02:03:36.324Z,6.60
2017-09-14T02:06:04.376Z,9.00
2017-09-14T02:08:32.434Z,6.00
2017-09-14T02:11:00.507Z,6.23
2017-09-14T02:13:28.567Z,10.47
2017-09-14T02:15:56.635Z,9.70
2017-09-14T02:18:24.992Z,4.07
2017-09-14T02:20:53.076Z,8.50
2017-09-14T02:23:21.142Z,7.67
2017-09-14T02:25:49.216Z,10.53
2017-09-14T02:28:17.283Z,9.63
2017-09-14T02:30:45.354Z,9.40
2017-09-14T02:33:13.419Z,10.03
2017-09-14T02:35:41.491Z,9.93
2017-09-14T02:38:09.564Z,10.63
2017-09-14T02:40:37.635Z,8.67
2017-09-14T02:43:06.490Z,10.77
2017-09-14T02:45:35.326Z,9.10
2017-09-14T02:48:03.411Z,11.40
2017-09-14T02:50:31.488Z,14.10
2017-09-14T02:52:59.571Z,9.43
2017-09-14T02:55:27.634Z,7.93
2017-09-14T02:57:55.714Z,8.60
2017-09-14T03:00:23.774Z,11.97
2017-09-14T03:02:51.826Z,7.50
2017-09-14T03:05:19.903Z,13.30
2017-09-14T03:07:47.964Z,9.70
2017-09-14T03:10:16.043Z,12.73
2017-09-14T03:12:44.126Z,7.37
2017-09-14T03:15:12.187Z,12.20
2017-09-14T03:17:40.268Z,12.43
2017-09-14T03:20:08.317Z,8.90
2017-09-14T03:22:36.387Z,14.27
2017-09-14T03:25:04.455Z,10.87
2017-09-14T03:27:32.534Z,9.10
2017-09-14T03:30:00.593Z,15.17
2017-09-14T03:32:28.659Z,17.07
2017-09-14T03:34:56.730Z,11.77
2017-09-14T03:37:24.805Z,11.67
2017-09-14T03:39:52.871Z,12.20
2017-09-14T03:42:20.919Z,18.70
2017-09-14T03:44:49.751Z,7.37
2017-09-14T03:47:17.819Z,8.10
2017-09-14T03:49:46.469Z,8.50
2017-09-14T03:52:14.668Z,9.80
2017-09-14T03:54:42.751Z,13.47
2017-09-14T03:57:10.806Z,16.23
2017-09-14T03:59:38.896Z,14.30
2017-09-14T04:02:07.735Z,10.50
2017-09-14T04:04:35.784Z,15.80
2017-09-14T04:07:03.855Z,9.00
2017-09-14T04:09:31.925Z,12.03
2017-09-14T04:12:00.743Z,11.03
2017-09-14T04:14:29.201Z,10.23
2017-09-14T04:16:57.288Z,8.87
2017-09-14T04:19:25.333Z,7.07
2017-09-14T04:21:53.418Z,13.63
2017-09-14T04:24:21.479Z,9.70
2017-09-14T04:26:49.579Z,11.30
2017-09-14T04:29:17.655Z,12.97
2017-09-14T04:31:45.794Z,8.30
2017-09-14T04:34:14.633Z,9.00
2017-09-14T04:36:42.722Z,14.33
2017-09-14T04:39:10.822Z,14.43
2017-09-14T04:41:38.858Z,12.30
2017-09-14T04:44:06.924Z,13.80
2017-09-14T04:46:34.983Z,13.80
2017-09-14T04:49:03.046Z,15.80
2017-09-14T04:51:31.107Z,12.83
2017-09-14T04:53:59.187Z,10.27
2017-09-14T04:56:27.263Z,15.30
2017-09-14T04:58:55.335Z,11.30
2017-09-14T05:01:23.397Z,10.87
2017-09-14T05:03:51.457Z,15.27
2017-09-14T05:06:19.546Z,15.53
2017-09-14T05:08:48.394Z,13.87
2017-09-14T05:11:16.474Z,16.97
2017-09-14T05:13:45.185Z,16.13
2017-09-14T05:16:13.235Z,16.33
2017-09-14T05:18:41.300Z,10.80
2017-09-14T05:21:09.362Z,11.40
2017-09-14T05:23:37.464Z,12.23
2017-09-14T05:26:05.519Z,8.87
2017-09-14T05:28:33.589Z,14.27
2017-09-14T05:31:01.683Z,8.73
2017-09-14T05:33:29.754Z,13.53
2017-09-14T05:35:57.821Z,12.00
2017-09-14T05:38:25.909Z,14.77
2017-09-14T05:40:53.960Z,20.50
2017-09-14T05:43:22.050Z,13.43
2017-09-14T05:45:50.125Z,18.73
2017-09-14T05:48:18.955Z,12.67
2017-09-14T05:50:47.007Z,13.30
2017-09-14T05:53:15.079Z,10.40
2017-09-14T05:55:43.146Z,11.63
2017-09-14T05:58:11.240Z,14.43
2017-09-14T06:00:39.295Z,17.27
2017-09-14T06:03:07.355Z,19.83
2017-09-14T06:05:35.436Z,20.47
2017-09-14T06:08:03.494Z,18.83
2017-09-14T06:10:31.583Z,15.33
2017-09-14T06:12:59.655Z,15.20
2017-09-14T06:15:27.711Z,15.00
2017-09-14T06:17:55.794Z,24.07
2017-09-14T06:20:23.856Z,12.27
2017-09-14T06:22:51.930Z,13.97
2017-09-14T06:25:19.992Z,13.43
2017-09-14T06:27:48.075Z,14.60
2017-09-14T06:30:16.166Z,14.07
2017-09-14T06:32:45.728Z,9.97
2017-09-14T06:35:13.797Z,8.93
2017-09-14T06:37:41.853Z,10.43
2017-09-14T06:40:09.935Z,15.33
2017-09-14T06:42:37.998Z,9.80
2017-09-14T06:45:06.071Z,15.53
2017-09-14T06:47:34.138Z,5.47
2017-09-14T06:50:02.208Z,12.83
2017-09-14T06:52:30.278Z,15.70
2017-09-14T06:54:59.857Z,10.27
2017-09-14T06:57:28.776Z,10.27
2017-09-14T06:59:56.843Z,8.30
2017-09-14T07:02:24.914Z,15.43
2017-09-14T07:04:53.012Z,15.30
2017-09-14T07:07:21.839Z,12.57
2017-09-14T07:09:49.900Z,9.40
2017-09-14T07:12:17.963Z,14.37
2017-09-14T07:14:46.043Z,15.53
2017-09-14T07:17:14.111Z,19.13
2017-09-14T07:19:42.175Z,8.20
2017-09-14T07:22:11.022Z,17.40
2017-09-14T07:24:40.010Z,14.57
2017-09-14T07:27:08.079Z,8.77
2017-09-14T07:29:36.147Z,11.23
2017-09-14T07:32:04.220Z,9.73
2017-09-14T07:34:32.295Z,8.17
2017-09-14T07:37:00.386Z,9.50
2017-09-14T07:39:29.252Z,9.87
2017-09-14T07:41:57.316Z,10.67
2017-09-14T07:44:25.400Z,7.03
2017-09-14T07:46:53.471Z,14.27
2017-09-14T07:49:21.527Z,9.70
2017-09-14T07:51:49.587Z,5.13
2017-09-14T07:54:17.659Z,11.13
2017-09-14T07:56:46.494Z,11.63
2017-09-14T07:59:14.568Z,7.53
2017-09-14T08:01:42.636Z,15.50
2017-09-14T08:04:10.713Z,8.77
2017-09-14T08:06:38.767Z,10.10
2017-09-14T08:09:06.847Z,9.30
2017-09-14T08:11:34.945Z,7.53
2017-09-14T08:14:02.980Z,7.10
2017-09-14T08:16:31.073Z,8.00
2017-09-14T08:18:59.120Z,3.13
2017-09-14T08:21:27.222Z,5.23
2017-09-14T08:23:55.239Z,7.87
2017-09-14T08:26:24.139Z,14.97
2017-09-14T08:28:52.951Z,4.20
2017-09-14T08:31:21.031Z,4.70
2017-09-14T08:33:49.091Z,5.50
2017-09-14T08:36:17.151Z,4.47
2017-09-14T08:38:45.222Z,8.00
2017-09-14T08:41:13.294Z,6.97
2017-09-14T08:43:41.375Z,3.50
2017-09-14T08:46:09.434Z,2.50
2017-09-14T08:48:37.506Z,8.33
2017-09-14T08:51:05.574Z,2.33
2017-09-14T08:53:33.649Z,2.67
2017-09-14T08:56:01.715Z,6.20
2017-09-14T08:58:29.793Z,5.20
2017-09-14T09:00:57.860Z,6.40
2017-09-14T09:03:25.929Z,5.17
2017-09-14T09:05:53.986Z,6.03
2017-09-14T09:08:22.056Z,2.90
2017-09-14T09:10:50.111Z,5.87
2017-09-14T09:13:18.286Z,5.33
2017-09-14T09:15:46.339Z,4.90
2017-09-14T09:18:15.170Z,3.97
2017-09-14T09:20:43.278Z,5.00
2017-09-14T09:23:11.321Z,5.53
2017-09-14T09:25:39.357Z,3.13
2017-09-14T09:28:07.431Z,5.40
2017-09-14T09:30:35.484Z,3.60
2017-09-14T09:33:04.320Z,5.60
2017-09-14T09:35:32.384Z,5.60
2017-09-14T09:38:00.443Z,7.90
2017-09-14T09:40:28.538Z,3.90
2017-09-14T09:42:56.598Z,3.57
2017-09-14T09:45:24.666Z,5.23
2017-09-14T09:47:52.729Z,1.10
2017-09-14T09:50:20.812Z,1.77
2017-09-14T09:52:48.876Z,1.63
2017-09-14T09:55:16.940Z,2.83
2017-09-14T09:57:45.005Z,2.13
2017-09-14T10:00:13.062Z,2.30
2017-09-14T10:02:41.138Z,4.60
2017-09-14T10:05:09.198Z,2.50
2017-09-14T10:07:37.275Z,2.60
2017-09-14T10:10:05.322Z,3.37
2017-09-14T10:12:33.418Z,3.57
2017-09-14T10:15:01.476Z,3.00
2017-09-14T10:17:29.532Z,2.50
2017-09-14T10:19:57.605Z,3.00
2017-09-14T10:22:25.664Z,3.10
2017-09-14T10:24:54.486Z,2.33
2017-09-14T10:27:22.559Z,2.60
2017-09-14T10:29:50.626Z,3.57
2017-09-14T10:32:18.680Z,2.70
2017-09-14T10:34:46.752Z,1.93
2017-09-14T10:37:14.830Z,2.10
2017-09-14T10:39:42.887Z,8.23
2017-09-14T10:42:11.698Z,2.60
2017-09-14T10:44:39.748Z,3.53
2017-09-14T10:47:07.838Z,2.77
2017-09-14T10:49:35.921Z,3.43
2017-09-14T10:52:03.975Z,3.00
2017-09-14T10:54:32.051Z,2.00
2017-09-14T10:57:00.099Z,2.27
2017-09-14T10:59:28.150Z,3.43
2017-09-14T11:01:56.982Z,2.30
2017-09-14T11:04:25.050Z,1.40
2017-09-14T11:06:53.115Z,1.63
2017-09-14T11:09:21.196Z,1.33
2017-09-14T11:11:50.424Z,1.83
2017-09-14T11:14:18.491Z,1.50
2017-09-14T11:16:46.558Z,1.30
2017-09-14T11:19:14.639Z,2.90
2017-09-14T11:21:42.715Z,1.47
2017-09-14T11:24:10.771Z,3.57
2017-09-14T11:26:38.847Z,2.07
2017-09-14T11:29:06.915Z,6.73
2017-09-14T11:31:35.864Z,2.03
2017-09-14T11:34:03.933Z,2.73
2017-09-14T11:36:31.999Z,2.33
2017-09-14T11:39:00.073Z,2.70
2017-09-14T11:41:28.122Z,2.93
2017-09-14T11:43:56.967Z,2.87
2017-09-14T11:46:25.054Z,4.10
2017-09-14T11:48:53.122Z,3.73
2017-09-14T11:51:21.194Z,2.97
2017-09-14T11:53:49.261Z,3.33
2017-09-14T11:56:17.327Z,3.23
2017-09-14T11:58:45.403Z,2.57
2017-09-14T12:01:13.468Z,2.67
2017-09-14T12:03:41.538Z,5.50
2017-09-14T12:06:10.386Z,4.20
2017-09-14T12:08:38.443Z,4.13
2017-09-14T12:11:06.521Z,6.17
2017-09-14T12:13:34.563Z,2.90
2017-09-14T12:16:02.620Z,3.10
2017-09-14T12:18:30.712Z,2.10
2017-09-14T12:20:58.786Z,3.17
2017-09-14T12:23:26.859Z,4.30
2017-09-14T12:25:54.921Z,6.00
2017-09-14T12:28:22.994Z,2.00
2017-09-14T12:30:51.082Z,2.73
2017-09-14T12:33:19.162Z,2.70
2017-09-14T12:35:47.228Z,1.37
2017-09-14T12:38:15.310Z,3.70
2017-09-14T12:40:43.361Z,2.10
2017-09-14T12:43:11.415Z,1.10
2017-09-14T12:45:39.512Z,3.43
2017-09-14T12:48:07.590Z,1.17
2017-09-14T12:50:35.668Z,1.57
2017-09-14T12:53:03.727Z,1.60
2017-09-14T12:55:32.894Z,1.07
2017-09-14T12:58:00.967Z,4.30
2017-09-14T13:00:29.043Z,2.10
2017-09-14T13:02:57.102Z,3.83
2017-09-14T13:05:25.156Z,2.57
2017-09-14T13:07:53.230Z,1.90
2017-09-14T13:10:21.304Z,2.73
2017-09-14T13:12:49.351Z,2.10
2017-09-14T13:15:18.173Z,1.70
2017-09-14T13:17:46.226Z,3.73
2017-09-14T13:20:15.054Z,5.23
2017-09-14T13:22:43.137Z,1.50
2017-09-14T13:25:12.028Z,2.40
2017-09-14T13:27:41.290Z,2.47
2017-09-14T13:30:09.376Z,4.20
2017-09-14T13:32:37.431Z,2.03
2017-09-14T13:35:05.514Z,2.73
2017-09-14T13:37:33.616Z,3.80
2017-09-14T13:40:01.678Z,1.33
2017-09-14T13:42:29.784Z,5.40
2017-09-14T13:44:58.613Z,2.43
2017-09-14T13:47:26.666Z,2.50
2017-09-14T13:49:54.735Z,3.73
2017-09-14T13:52:22.818Z,2.40
2017-09-14T13:54:56.517Z,2.40
2017-09-14T13:57:24.578Z,2.90
2017-09-14T13:59:52.655Z,2.30
2017-09-14T14:02:20.752Z,4.07
2017-09-14T14:04:50.075Z,2.20
2017-09-14T14:07:18.141Z,6.10
2017-09-14T14:09:46.979Z,2.63
2017-09-14T14:12:15.051Z,3.50
2017-09-14T14:14:43.164Z,1.80
2017-09-14T14:17:11.195Z,2.20
2017-09-14T14:19:39.284Z,2.90
2017-09-14T14:22:07.335Z,5.37
2017-09-14T14:24:35.433Z,2.00
2017-09-14T14:27:03.502Z,2.17
2017-09-14T14:29:32.331Z,2.90
2017-09-14T14:32:00.414Z,2.27
2017-09-14T14:34:28.487Z,1.93
2017-09-14T14:36:56.630Z,1.80
2017-09-14T14:39:24.719Z,2.00
2017-09-14T14:41:52.784Z,2.70
2017-09-14T14:44:20.875Z,1.60
2017-09-14T14:46:48.926Z,3.00
2017-09-14T14:49:17.015Z,3.77
2017-09-14T14:51:45.160Z,1.47
2017-09-14T14:54:13.388Z,1.30
2017-09-14T14:56:43.732Z,1.63
2017-09-14T14:59:13.296Z,1.40
2017-09-14T15:01:41.354Z,2.00
2017-09-14T15:04:09.416Z,2.33
2017-09-14T15:06:37.466Z,1.50
2017-09-14T15:09:05.559Z,1.70
2017-09-14T15:11:33.649Z,1.87
2017-09-14T15:14:01.677Z,2.30
2017-09-14T15:16:29.759Z,1.87
2017-09-14T15:18:57.804Z,3.57
2017-09-14T15:21:26.652Z,3.73
2017-09-14T15:23:54.775Z,3.20
2017-09-14T15:26:23.767Z,2.30
2017-09-14T15:28:52.593Z,1.70
2017-09-14T15:31:20.649Z,4.03
2017-09-14T15:33:48.737Z,2.17
2017-09-14T15:36:16.800Z,2.33
2017-09-14T15:38:50.445Z,3.43
2017-09-14T15:54:42.507Z,1.20
2017-09-14T15:57:10.587Z,1.27
2017-09-14T15:59:38.639Z,1.10
2017-09-14T16:02:07.482Z,1.40
2017-09-14T16:04:35.562Z,2.07
2017-09-14T16:07:03.639Z,2.40
2017-09-14T16:09:32.501Z,1.50
2017-09-14T16:12:00.565Z,1.03
2017-09-14T16:14:28.656Z,2.53
2017-09-14T16:16:56.713Z,1.67
2017-09-14T16:19:24.783Z,1.83
2017-09-14T16:21:52.855Z,1.27
2017-09-14T16:24:20.971Z,1.33
2017-09-14T16:26:48.995Z,1.63
2017-09-14T16:29:17.064Z,1.00
2017-09-14T16:31:45.168Z,1.17
2017-09-14T16:34:13.235Z,1.73
2017-09-14T16:36:41.304Z,1.60
2017-09-14T16:39:09.384Z,4.93
2017-09-14T16:41:37.434Z,3.17
2017-09-14T16:44:05.516Z,1.43
2017-09-14T16:46:33.588Z,2.00
2017-09-14T16:49:01.659Z,2.63
2017-09-14T16:51:29.731Z,1.43
2017-09-14T16:53:57.819Z,1.70
2017-09-14T16:56:25.870Z,1.50
2017-09-14T16:58:53.960Z,1.50
2017-09-14T17:01:22.007Z,2.83
2017-09-14T17:03:50.099Z,2.00
2017-09-14T17:06:18.190Z,1.87
2017-09-14T17:08:47.066Z,2.80
2017-09-14T17:11:15.139Z,2.03
2017-09-14T17:13:43.206Z,2.40
2017-09-14T17:16:11.280Z,2.00
2017-09-14T17:18:40.140Z,5.33
2017-09-14T17:21:08.210Z,2.53
2017-09-14T17:23:36.275Z,2.27
2017-09-14T17:26:04.367Z,2.23
2017-09-14T17:28:32.441Z,4.33
2017-09-14T17:31:00.512Z,3.07
2017-09-14T17:33:28.578Z,2.87
2017-09-14T17:35:56.626Z,3.40
2017-09-14T17:38:24.701Z,3.13
2017-09-14T17:40:52.767Z,3.60
2017-09-14T17:43:20.843Z,4.10
2017-09-14T17:45:48.923Z,3.73
2017-09-14T17:48:17.012Z,3.93
2017-09-14T17:50:45.067Z,4.97
2017-09-14T17:53:13.277Z,4.50
2017-09-14T17:55:41.345Z,5.20
2017-09-14T17:58:09.406Z,4.30
2017-09-14T18:00:37.475Z,4.43
2017-09-14T18:03:05.537Z,4.57
2017-09-14T18:05:33.618Z,14.43
2017-09-14T18:08:01.688Z,4.57
2017-09-14T18:10:29.746Z,4.47
2017-09-14T18:12:57.802Z,4.90
2017-09-14T18:15:25.875Z,4.27
2017-09-14T18:17:53.967Z,4.97
2017-09-14T18:20:22.021Z,5.03
2017-09-14T18:22:50.098Z,5.10
2017-09-14T18:25:18.176Z,5.10
2017-09-14T18:27:46.253Z,5.37
2017-09-14T18:30:14.354Z,5.77
2017-09-14T18:32:43.920Z,7.40
2017-09-14T18:35:12.015Z,6.50
2017-09-14T18:37:40.074Z,7.43
2017-09-14T18:40:08.147Z,6.40
2017-09-14T18:42:36.210Z,7.50
2017-09-14T18:45:04.285Z,7.50
2017-09-14T18:47:33.133Z,8.07
2017-09-14T18:50:01.216Z,7.90
2017-09-14T18:52:29.297Z,7.83
2017-09-14T18:54:57.356Z,7.90
2017-09-14T18:57:25.417Z,8.53
2017-09-14T18:59:53.492Z,8.10
2017-09-14T19:02:21.571Z,8.57
2017-09-14T19:04:49.636Z,9.77
2017-09-14T19:07:17.694Z,9.40
2017-09-14T19:09:45.782Z,10.43
2017-09-14T19:12:13.873Z,7.40
2017-09-14T19:14:41.943Z,9.23
2017-09-14T19:17:10.032Z,8.00
2017-09-14T19:19:38.901Z,7.37
2017-09-14T19:22:06.979Z,7.77
2017-09-14T19:24:35.054Z,9.80
2017-09-14T19:27:03.151Z,7.57
2017-09-14T19:29:31.971Z,7.53
2017-09-14T19:32:00.043Z,10.50
2017-09-14T19:34:28.109Z,9.23
2017-09-14T19:36:56.185Z,8.87
2017-09-14T19:39:24.255Z,10.00
2017-09-14T19:41:52.331Z,7.97
2017-09-14T19:44:20.400Z,10.33
2017-09-14T19:46:48.455Z,8.00
2017-09-14T19:49:16.902Z,8.40
2017-09-14T19:51:44.942Z,9.93
2017-09-14T19:54:13.646Z,10.87
2017-09-14T19:56:41.723Z,14.53
2017-09-14T19:59:09.787Z,11.30
2017-09-14T20:01:39.364Z,9.20
2017-09-14T20:04:07.456Z,12.03
2017-09-14T20:06:35.569Z,12.90
2017-09-14T20:09:03.700Z,10.03
2017-09-14T20:11:31.779Z,13.87
2017-09-14T20:13:59.864Z,13.27
2017-09-14T20:16:27.932Z,14.13
2017-09-14T20:18:55.991Z,13.23
2017-09-14T20:21:24.063Z,17.67
2017-09-14T20:23:52.125Z,15.47
2017-09-14T20:26:20.209Z,12.60
2017-09-14T20:28:48.284Z,11.00
2017-09-14T20:31:16.338Z,9.97
2017-09-14T20:33:45.627Z,15.10
2017-09-14T20:36:13.708Z,11.73
2017-09-14T20:38:41.783Z,11.63
2017-09-14T20:41:09.861Z,10.33
2017-09-14T20:43:37.919Z,14.30
2017-09-14T20:46:05.983Z,13.60
2017-09-14T20:48:34.087Z,13.97
2017-09-14T20:51:02.900Z,11.67
2017-09-14T20:53:30.970Z,17.00
2017-09-14T20:55:59.042Z,24.83
2017-09-14T20:58:27.152Z,14.70
2017-09-14T21:00:55.207Z,16.43
2017-09-14T21:03:23.303Z,17.90
2017-09-14T21:05:51.363Z,15.97
2017-09-14T21:08:19.442Z,18.80
2017-09-14T21:10:48.294Z,15.80
2017-09-14T21:13:16.489Z,18.77
2017-09-14T21:15:44.555Z,19.00
2017-09-14T21:18:12.626Z,19.30
2017-09-14T21:20:40.688Z,18.33
2017-09-14T21:23:08.768Z,15.87
2017-09-14T21:25:36.836Z,18.60
2017-09-14T21:28:04.911Z,20.33
2017-09-14T21:30:32.948Z,21.53
2017-09-14T21:33:01.034Z,18.20
2017-09-14T21:35:29.114Z,21.07
2017-09-14T21:37:57.356Z,19.37
2017-09-14T21:40:25.483Z,20.33
2017-09-14T21:42:53.544Z,20.80
2017-09-14T21:45:21.617Z,27.30
2017-09-14T21:47:49.690Z,26.87
2017-09-14T21:50:17.751Z,21.90
2017-09-14T21:52:45.827Z,24.50
2017-09-14T21:55:13.960Z,24.23
2017-09-14T21:57:42.028Z,23.23
2017-09-14T22:00:10.121Z,25.87
2017-09-14T22:02:38.201Z,24.03
2017-09-14T22:05:06.268Z,31.73
2017-09-14T22:07:34.395Z,30.23
2017-09-14T22:10:02.485Z,27.30
2017-09-14T22:12:30.536Z,24.43
2017-09-14T22:14:58.633Z,26.23
2017-09-14T22:17:26.705Z,30.27
2017-09-14T22:19:54.773Z,25.33
2017-09-14T22:22:22.839Z,20.77
2017-09-14T22:24:50.913Z,25.83
2017-09-14T22:27:19.011Z,21.60
2017-09-14T22:29:48.623Z,25.17
2017-09-14T22:32:16.693Z,23.27
2017-09-14T22:34:44.758Z,19.20
2017-09-14T22:37:12.828Z,20.33
2017-09-14T22:39:40.903Z,22.10
2017-09-14T22:42:08.967Z,26.70
2017-09-14T22:44:37.050Z,24.50
2017-09-14T22:47:05.119Z,22.93
2017-09-14T22:49:33.194Z,24.67
2017-09-14T22:52:01.271Z,21.30
2017-09-14T22:54:29.336Z,27.30
2017-09-14T22:56:57.405Z,28.57
2017-09-14T22:59:25.487Z,29.63
2017-09-14T23:01:53.554Z,27.57
2017-09-14T23:04:21.636Z,35.60
2017-09-14T23:06:49.716Z,33.23
2017-09-14T23:09:17.790Z,29.20
2017-09-14T23:11:45.934Z,33.30
2017-09-14T23:14:14.028Z,36.77
2017-09-14T23:16:42.086Z,28.33
2017-09-14T23:19:10.166Z,29.70
2017-09-14T23:21:38.227Z,35.97
2017-09-14T23:24:06.295Z,30.97
2017-09-14T23:26:34.405Z,32.90
2017-09-14T23:29:03.251Z,29.67
2017-09-14T23:31:31.342Z,37.83
2017-09-14T23:33:59.443Z,32.47
2017-09-14T23:36:28.277Z,32.13
2017-09-14T23:38:57.141Z,38.13
2017-09-14T23:41:25.214Z,34.43
2017-09-14T23:43:53.287Z,34.00
2017-09-14T23:46:21.378Z,33.20
2017-09-14T23:48:49.439Z,28.83
2017-09-14T23:51:17.544Z,27.83
2017-09-14T23:53:45.619Z,34.10
2017-09-14T23:56:13.691Z,28.90
2017-09-14T23:58:41.771Z,32.60
